X  Schliessen METAR Luftfahrt Wetterdaten     EDHL Lübeck Blankensee Airport
Temperatur
17°C Temperatur
10°C Taupunkt
64% Feuchtigkeit



Wind
5 km/h
3 mph
1 m/s
3 KTS



Kein Wind
N
Aktuelle Wetterlage

Klar Klar
Luftdruck 1007.79 (hPa) - 29.76 (inHg)
Sichtweite 6 (Meile) - 9.7 (Km)
Flughafen
Flughafen Code EDHL

Position : Lübeck Blankensee Airport
Entfernung: 78 (Km)

Metar:
EDHL 160750Z VRB03KT CAVOK 17/10 Q1008

Zeit: 16-06-2024 07:50 CEST